createdAt,value
2018-01-05T00:01:52.868Z,96578.87
2018-01-05T00:04:20.325Z,96574.20
2018-01-05T00:06:48.402Z,96575.00
2018-01-05T00:09:15.856Z,96577.48
2018-01-05T00:11:43.313Z,96571.47
2018-01-05T00:14:11.027Z,96590.50
2018-01-05T00:16:38.487Z,96626.12
2018-01-05T00:19:05.958Z,96670.13
2018-01-05T00:21:33.772Z,96699.05
2018-01-05T00:24:01.233Z,96740.97
2018-01-05T00:26:28.673Z,96732.52
2018-01-05T00:28:56.757Z,96740.02
2018-01-05T00:31:24.212Z,96728.33
2018-01-05T00:33:51.665Z,96715.95
2018-01-05T00:36:19.499Z,96711.76
2018-01-05T00:38:46.954Z,96702.41
2018-01-05T00:41:14.414Z,96707.55
2018-01-05T00:43:42.229Z,96707.95
2018-01-05T00:46:09.677Z,96681.09
2018-01-05T00:48:37.137Z,96675.02
2018-01-05T00:51:04.885Z,96678.20
2018-01-05T00:53:32.336Z,96671.41
2018-01-05T00:55:59.793Z,96681.98
2018-01-05T00:58:27.519Z,96686.73
2018-01-05T01:00:54.985Z,96691.58
2018-01-05T01:03:22.443Z,96723.45
2018-01-05T01:05:50.196Z,96725.14
2018-01-05T01:08:17.649Z,96704.62
2018-01-05T01:10:45.101Z,96727.90
2018-01-05T01:13:12.677Z,96742.77
2018-01-05T01:15:40.128Z,96750.67
2018-01-05T01:18:07.584Z,96768.23
2018-01-05T01:20:35.270Z,96769.93
2018-01-05T01:23:02.724Z,96768.47
2018-01-05T01:25:30.181Z,96772.58
2018-01-05T01:27:57.956Z,96784.35
2018-01-05T01:30:25.671Z,96788.22
2018-01-05T01:32:53.143Z,96785.19
2018-01-05T01:35:20.943Z,96782.48
2018-01-05T01:37:48.404Z,96791.83
2018-01-05T01:40:15.865Z,96791.47
2018-01-05T01:42:43.641Z,96776.63
2018-01-05T01:45:11.103Z,96787.78
2018-01-05T01:47:38.568Z,96823.42
2018-01-05T01:50:06.326Z,96837.84
2018-01-05T01:52:33.784Z,96862.92
2018-01-05T01:55:01.242Z,96831.02
2018-01-05T01:57:29.014Z,96830.53
2018-01-05T01:59:56.464Z,96839.53
2018-01-05T02:02:23.921Z,96844.28
2018-01-05T02:04:51.702Z,96834.39
2018-01-05T02:07:19.162Z,96810.61
2018-01-05T02:09:46.622Z,96821.16
2018-01-05T02:12:14.385Z,96790.64
2018-01-05T02:14:41.846Z,96805.38
2018-01-05T02:17:09.308Z,96812.28
2018-01-05T02:19:37.068Z,96819.00
2018-01-05T02:22:04.526Z,96815.26
2018-01-05T02:24:32.355Z,96818.81
2018-01-05T02:27:00.243Z,96815.43
2018-01-05T02:29:27.698Z,96820.67
2018-01-05T02:31:56.004Z,96830.87
2018-01-05T02:34:23.669Z,96848.70
2018-01-05T02:36:51.129Z,96856.20
2018-01-05T02:39:18.603Z,96856.30
2018-01-05T02:41:46.368Z,96855.69
2018-01-05T02:44:13.831Z,96858.78
2018-01-05T02:46:41.297Z,96859.16
2018-01-05T02:49:09.044Z,96871.75
2018-01-05T02:51:36.493Z,96874.99
2018-01-05T02:54:03.945Z,96882.02
2018-01-05T02:56:31.734Z,96880.77
2018-01-05T02:58:59.569Z,96894.14
2018-01-05T03:01:27.026Z,96901.02
2018-01-05T03:03:55.036Z,96912.16
2018-01-05T03:06:22.477Z,96916.35
2018-01-05T03:08:49.920Z,96915.88
2018-01-05T03:11:17.730Z,96922.25
2018-01-05T03:13:45.189Z,96940.01
2018-01-05T03:16:12.649Z,96943.11
2018-01-05T03:18:40.364Z,96953.44
2018-01-05T03:21:07.837Z,96947.45
2018-01-05T03:23:35.303Z,96952.77
2018-01-05T03:26:03.093Z,96961.88
2018-01-05T03:28:30.546Z,96964.59
2018-01-05T03:30:58.003Z,96958.80
2018-01-05T03:33:28.549Z,96962.64
2018-01-05T03:35:55.993Z,96978.56
2018-01-05T03:38:23.444Z,96999.33
2018-01-05T03:40:51.237Z,96995.87
2018-01-05T03:43:18.690Z,96997.46
2018-01-05T03:45:46.137Z,96990.98
2018-01-05T03:48:13.921Z,97007.92
2018-01-05T03:50:41.368Z,97005.77
2018-01-05T03:53:10.539Z,97021.41
2018-01-05T03:55:38.765Z,97020.89
2018-01-05T03:58:06.216Z,97015.06
2018-01-05T04:00:33.658Z,97039.06
2018-01-05T04:03:01.351Z,97032.10
2018-01-05T04:05:28.808Z,97025.94
2018-01-05T04:07:56.249Z,97030.84
2018-01-05T04:10:24.146Z,97024.69
2018-01-05T04:12:51.599Z,97027.61
2018-01-05T04:15:19.060Z,97021.50
2018-01-05T04:17:46.833Z,97041.48
2018-01-05T04:20:14.288Z,97052.97
2018-01-05T04:22:41.750Z,97058.84
2018-01-05T04:25:09.517Z,97053.31
2018-01-05T04:27:36.974Z,97047.89
2018-01-05T04:30:04.439Z,97066.18
2018-01-05T04:32:32.149Z,97070.34
2018-01-05T04:35:00.346Z,97073.49
2018-01-05T04:37:27.814Z,97074.40
2018-01-05T04:39:55.509Z,97082.02
2018-01-05T04:42:22.964Z,97080.70
2018-01-05T04:44:50.417Z,97096.37
2018-01-05T04:47:18.188Z,97116.97
2018-01-05T04:49:45.641Z,97128.36
2018-01-05T04:52:13.104Z,97122.66
2018-01-05T04:54:41.188Z,97117.31
2018-01-05T04:57:08.649Z,97124.91
2018-01-05T04:59:36.105Z,97114.86
2018-01-05T05:02:03.866Z,97117.44
2018-01-05T05:04:31.309Z,97113.79
2018-01-05T05:06:58.809Z,97118.06
2018-01-05T05:09:26.564Z,97126.48
2018-01-05T05:11:54.016Z,97139.92
2018-01-05T05:14:21.468Z,97133.06
2018-01-05T05:16:49.236Z,97136.05
2018-01-05T05:19:16.684Z,97136.29
2018-01-05T05:21:44.140Z,97136.83
2018-01-05T05:24:11.916Z,97135.83
2018-01-05T05:26:39.369Z,97132.21
2018-01-05T05:29:06.823Z,97141.58
2018-01-05T05:31:34.612Z,97151.63
2018-01-05T05:34:02.060Z,97148.47
2018-01-05T05:36:30.218Z,97155.48
2018-01-05T05:38:58.217Z,97162.98
2018-01-05T05:41:25.664Z,97158.86
2018-01-05T05:43:53.121Z,97166.60
2018-01-05T05:46:20.923Z,97162.15
2018-01-05T05:48:48.384Z,97165.77
2018-01-05T05:51:15.839Z,97172.66
2018-01-05T05:53:43.906Z,97174.39
2018-01-05T05:56:11.357Z,97165.33
2018-01-05T05:58:38.908Z,97170.77
2018-01-05T06:01:07.497Z,97168.95
2018-01-05T06:03:34.973Z,97176.48
2018-01-05T06:06:02.479Z,97185.03
2018-01-05T06:08:30.204Z,97197.87
2018-01-05T06:10:57.654Z,97196.98
2018-01-05T06:13:25.109Z,97193.06
2018-01-05T06:15:53.324Z,97191.56
2018-01-05T06:18:20.771Z,97199.22
2018-01-05T06:20:48.221Z,97198.42
2018-01-05T06:23:15.900Z,97193.32
2018-01-05T06:25:43.348Z,97191.14
2018-01-05T06:28:10.802Z,97180.87
2018-01-05T06:30:38.538Z,97195.95
2018-01-05T06:33:06.005Z,97198.98
2018-01-05T06:35:33.478Z,97195.87
2018-01-05T06:38:01.568Z,97194.35
2018-01-05T06:40:29.029Z,97209.23
2018-01-05T06:42:56.501Z,97211.35
2018-01-05T06:45:24.256Z,97210.48
2018-01-05T06:47:51.720Z,97211.75
2018-01-05T06:50:19.182Z,97217.41
2018-01-05T06:52:47.260Z,97231.75
2018-01-05T06:55:14.710Z,97233.14
2018-01-05T06:57:42.174Z,97232.03
2018-01-05T07:00:09.939Z,97234.91
2018-01-05T07:02:37.400Z,97238.04
2018-01-05T07:05:04.899Z,97251.33
2018-01-05T07:07:32.622Z,97251.22
2018-01-05T07:10:00.095Z,97244.78
2018-01-05T07:12:27.561Z,97246.54
2018-01-05T07:14:55.919Z,97236.44
2018-01-05T07:17:23.369Z,97241.41
2018-01-05T07:19:50.848Z,97237.50
2018-01-05T07:22:18.618Z,97237.70
2018-01-05T07:24:46.079Z,97241.80
2018-01-05T07:27:13.537Z,97247.00
2018-01-05T07:29:41.310Z,97239.46
2018-01-05T07:32:08.776Z,97234.89
2018-01-05T07:34:36.220Z,97233.36
2018-01-05T07:37:03.989Z,97232.50
2018-01-05T07:39:32.092Z,97239.30
2018-01-05T07:41:59.550Z,97234.55
2018-01-05T07:44:27.278Z,97223.97
2018-01-05T07:46:54.724Z,97221.34
2018-01-05T07:49:22.182Z,97219.81
2018-01-05T07:51:49.972Z,97225.36
2018-01-05T07:54:17.430Z,97226.81
2018-01-05T07:56:44.885Z,97232.13
2018-01-05T07:59:12.667Z,97222.25
2018-01-05T08:01:40.122Z,97238.56
2018-01-05T08:04:07.584Z,97245.16
2018-01-05T08:06:35.289Z,97254.63
2018-01-05T08:09:02.748Z,97244.28
2018-01-05T08:11:30.210Z,97256.70
2018-01-05T08:13:58.082Z,97261.59
2018-01-05T08:16:25.551Z,97245.70
2018-01-05T08:18:52.993Z,97249.61
2018-01-05T08:21:20.722Z,97251.31
2018-01-05T08:23:48.176Z,97249.08
2018-01-05T08:26:15.629Z,97245.91
2018-01-05T08:28:43.406Z,97241.78
2018-01-05T08:31:10.875Z,97233.34
2018-01-05T08:33:38.422Z,97240.36
2018-01-05T08:36:06.204Z,97238.09
2018-01-05T08:38:33.656Z,97240.34
2018-01-05T08:41:01.714Z,97238.22
2018-01-05T08:43:29.406Z,97227.13
2018-01-05T08:45:56.867Z,97225.38
2018-01-05T08:48:24.326Z,97223.42
2018-01-05T08:50:52.405Z,97226.84
2018-01-05T08:53:19.869Z,97231.66
2018-01-05T08:55:47.357Z,97234.42
2018-01-05T08:58:15.106Z,97242.13
2018-01-05T09:00:42.561Z,97235.56
2018-01-05T09:03:10.083Z,97240.09
2018-01-05T09:05:37.816Z,97237.48
2018-01-05T09:08:05.273Z,97251.14
2018-01-05T09:10:33.101Z,97251.58
2018-01-05T09:13:01.130Z,97246.03
2018-01-05T09:15:28.584Z,97246.80
2018-01-05T09:17:56.036Z,97246.62
2018-01-05T09:20:25.038Z,97247.57
2018-01-05T09:22:52.488Z,97239.95
2018-01-05T09:25:19.934Z,97259.13
2018-01-05T09:27:47.720Z,97241.19
2018-01-05T09:30:15.176Z,97230.22
2018-01-05T09:32:42.639Z,97234.59
2018-01-05T09:35:10.405Z,97234.63
2018-01-05T09:37:37.852Z,97229.61
2018-01-05T09:40:05.305Z,97225.36
2018-01-05T09:42:34.448Z,97220.56
2018-01-05T09:45:01.909Z,97226.70
2018-01-05T09:47:29.358Z,97217.96
2018-01-05T09:49:57.329Z,97211.47
2018-01-05T09:52:24.781Z,97197.92
2018-01-05T09:54:52.246Z,97202.27
2018-01-05T09:57:20.022Z,97207.23
2018-01-05T09:59:47.481Z,97199.42
2018-01-05T10:02:14.933Z,97199.20
2018-01-05T10:04:42.697Z,97192.76
2018-01-05T10:07:10.158Z,97194.35
2018-01-05T10:09:37.620Z,97187.76
2018-01-05T10:12:05.385Z,97191.81
2018-01-05T10:14:32.846Z,97186.29
2018-01-05T10:17:00.305Z,97185.66
2018-01-05T10:19:28.077Z,97181.44
2018-01-05T10:21:55.546Z,97184.10
2018-01-05T10:24:23.009Z,97181.62
2018-01-05T10:26:50.759Z,97185.48
2018-01-05T10:29:18.222Z,97175.64
2018-01-05T10:31:45.684Z,97173.65
2018-01-05T10:34:13.444Z,97166.95
2018-01-05T10:36:40.904Z,97170.70
2018-01-05T10:39:08.457Z,97158.03
2018-01-05T10:41:36.132Z,97156.69
2018-01-05T10:44:04.273Z,97159.63
2018-01-05T10:46:31.721Z,97156.11
2018-01-05T10:48:59.442Z,97151.02
2018-01-05T10:51:26.902Z,97149.28
2018-01-05T10:53:54.356Z,97146.05
2018-01-05T10:56:22.429Z,97131.28
2018-01-05T10:58:49.880Z,97131.01
2018-01-05T11:01:17.339Z,97129.88
2018-01-05T11:03:45.105Z,97132.14
2018-01-05T11:06:12.909Z,97151.25
2018-01-05T11:08:40.353Z,97144.70
2018-01-05T11:11:08.417Z,97143.77
2018-01-05T11:13:35.878Z,97141.53
2018-01-05T11:16:03.337Z,97143.19
2018-01-05T11:18:31.097Z,97127.97
2018-01-05T11:20:58.553Z,97124.34
2018-01-05T11:23:26.017Z,97129.94
2018-01-05T11:25:54.088Z,97131.84
2018-01-05T11:35:05.053Z,97123.40
2018-01-05T11:37:32.511Z,97118.09
2018-01-05T11:39:59.961Z,97112.84
2018-01-05T11:42:27.916Z,97113.53
2018-01-05T11:44:56.061Z,97114.13
2018-01-05T11:47:23.513Z,97105.80
2018-01-05T11:49:51.210Z,97097.66
2018-01-05T11:52:18.653Z,97100.69
2018-01-05T11:54:46.104Z,97103.06
2018-01-05T11:57:13.902Z,97101.55
2018-01-05T11:59:41.352Z,97104.95
2018-01-05T12:02:08.868Z,97105.59
2018-01-05T12:04:36.584Z,97101.73
2018-01-05T12:07:04.096Z,97106.12
2018-01-05T12:09:31.551Z,97100.69
2018-01-05T12:11:59.281Z,97090.84
2018-01-05T12:14:26.728Z,97103.30
2018-01-05T12:16:54.186Z,97091.21
2018-01-05T12:19:21.913Z,97090.28
2018-01-05T12:21:49.371Z,97091.95
2018-01-05T12:24:16.833Z,97093.02
2018-01-05T12:26:44.649Z,97085.04
2018-01-05T12:29:12.104Z,97071.45
2018-01-05T12:31:39.552Z,97074.63
2018-01-05T12:34:07.333Z,97084.23
2018-01-05T12:36:34.805Z,97087.77
2018-01-05T12:39:02.256Z,97078.03
2018-01-05T12:41:30.026Z,97079.03
2018-01-05T12:43:57.482Z,97077.25
2018-01-05T12:46:27.773Z,97070.61
2018-01-05T12:48:55.486Z,97062.55
2018-01-05T12:51:22.940Z,97062.70
2018-01-05T12:53:50.390Z,97063.48
2018-01-05T12:56:18.166Z,97059.27
2018-01-05T12:58:45.621Z,97051.84
2018-01-05T13:01:13.075Z,97053.63
2018-01-05T13:03:40.842Z,97051.55
2018-01-05T13:06:08.290Z,97045.22
2018-01-05T13:08:35.758Z,97037.03
2018-01-05T13:11:03.537Z,97044.13
2018-01-05T13:13:30.983Z,97053.96
2018-01-05T13:15:58.505Z,97053.14
2018-01-05T13:18:26.271Z,97055.45
2018-01-05T13:20:53.725Z,97049.63
2018-01-05T13:23:21.165Z,97050.63
2018-01-05T13:25:48.902Z,97051.98
2018-01-05T13:28:16.349Z,97048.56
2018-01-05T13:30:43.812Z,97056.69
2018-01-05T13:33:11.599Z,97054.81
2018-01-05T13:35:39.052Z,97046.44
2018-01-05T13:38:06.503Z,97036.52
2018-01-05T13:40:34.597Z,97028.17
2018-01-05T13:43:02.042Z,97041.14
2018-01-05T13:45:29.486Z,97043.36
2018-01-05T13:47:57.541Z,97038.45
2018-01-05T13:50:24.991Z,97043.60
2018-01-05T13:52:52.442Z,97049.31
2018-01-05T13:55:20.293Z,97043.75
2018-01-05T13:57:47.747Z,97049.73
2018-01-05T14:00:15.200Z,97050.52
2018-01-05T14:02:42.784Z,97057.94
2018-01-05T14:05:10.245Z,97056.06
2018-01-05T14:07:37.689Z,97063.19
2018-01-05T14:10:05.602Z,97065.87
2018-01-05T14:12:33.067Z,97070.30
2018-01-05T14:15:00.527Z,97068.12
2018-01-05T14:17:28.334Z,97066.76
2018-01-05T14:19:56.144Z,97069.52
2018-01-05T14:22:23.638Z,97063.28
2018-01-05T14:24:51.636Z,97063.57
2018-01-05T14:27:19.088Z,97057.88
2018-01-05T14:29:46.534Z,97062.07
2018-01-05T14:32:14.329Z,97073.45
2018-01-05T14:34:41.802Z,97073.81
2018-01-05T14:37:09.253Z,97071.44
2018-01-05T14:39:38.211Z,97076.38
2018-01-05T14:42:05.654Z,97080.88
2018-01-05T14:44:33.105Z,97073.13
2018-01-05T14:47:00.924Z,97077.98
2018-01-05T14:49:30.007Z,97078.84
2018-01-05T14:51:57.462Z,97085.12
2018-01-05T14:54:25.156Z,97099.44
2018-01-05T14:56:52.627Z,97104.54
2018-01-05T14:59:20.407Z,97107.97
2018-01-05T15:01:48.179Z,97113.22
2018-01-05T15:04:15.641Z,97130.14
2018-01-05T15:06:43.085Z,97121.73
2018-01-05T15:09:11.033Z,97114.39
2018-01-05T15:11:38.605Z,97112.61
2018-01-05T15:14:06.081Z,97108.72
2018-01-05T15:16:33.990Z,97116.05
2018-01-05T15:19:01.977Z,97110.64
2018-01-05T15:21:29.429Z,97106.67
2018-01-05T15:23:57.122Z,97109.36
2018-01-05T15:26:24.574Z,97106.73
2018-01-05T15:28:52.028Z,97100.50
2018-01-05T15:31:20.050Z,97096.34
2018-01-05T15:33:47.636Z,97092.70
2018-01-05T15:36:15.918Z,97084.23
2018-01-05T15:38:43.776Z,97079.63
2018-01-05T15:41:11.241Z,97065.63
2018-01-05T15:43:38.694Z,97069.34
2018-01-05T15:46:07.457Z,97066.20
2018-01-05T15:48:35.982Z,97071.07
2018-01-05T15:51:03.875Z,97074.46
2018-01-05T15:53:31.873Z,97053.19
2018-01-05T15:55:59.337Z,97073.02
2018-01-05T15:58:26.796Z,97076.77
2018-01-05T16:00:54.754Z,97085.12
2018-01-05T16:03:22.337Z,97096.66
2018-01-05T16:05:49.785Z,97093.89
2018-01-05T16:08:17.861Z,97089.31
2018-01-05T16:10:46.196Z,97088.03
2018-01-05T16:13:13.664Z,97088.17
2018-01-05T16:15:41.418Z,97090.12
2018-01-05T16:18:09.242Z,97093.91
2018-01-05T16:20:36.697Z,97086.78
2018-01-05T16:23:04.574Z,97085.34
2018-01-05T16:25:32.242Z,97084.41
2018-01-05T16:28:00.909Z,97088.53
2018-01-05T16:30:28.815Z,97087.45
2018-01-05T16:32:56.261Z,97090.95
2018-01-05T16:35:24.458Z,97089.58
2018-01-05T16:37:52.868Z,97090.47
2018-01-05T16:40:20.984Z,97092.16
2018-01-05T16:42:48.445Z,97088.22
2018-01-05T16:45:16.230Z,97094.17
2018-01-05T16:47:43.701Z,97085.44
2018-01-05T16:50:11.176Z,97086.09
2018-01-05T16:52:40.161Z,97075.87
2018-01-05T16:55:07.610Z,97082.22
2018-01-05T16:57:35.070Z,97085.30
2018-01-05T17:00:03.424Z,97087.17
2018-01-05T17:02:30.934Z,97087.34
2018-01-05T17:04:58.407Z,97085.39
2018-01-05T17:07:26.453Z,97089.50
2018-01-05T17:09:54.563Z,97086.03
2018-01-05T17:12:22.311Z,97086.73
2018-01-05T17:14:50.036Z,97086.17
2018-01-05T17:17:17.502Z,97097.78
2018-01-05T17:19:46.096Z,97094.99
2018-01-05T17:22:14.257Z,97097.37
2018-01-05T17:24:41.722Z,97100.03
2018-01-05T17:27:09.191Z,97092.01
2018-01-05T17:29:36.946Z,97085.05
2018-01-05T17:32:04.411Z,97080.78
2018-01-05T17:34:31.869Z,97077.61
2018-01-05T17:36:59.557Z,97078.09
2018-01-05T17:39:27.031Z,97075.97
2018-01-05T17:41:54.491Z,97090.20
2018-01-05T17:44:22.330Z,97098.86
2018-01-05T17:46:49.801Z,97108.83
2018-01-05T17:49:17.268Z,97119.06
2018-01-05T17:51:45.011Z,97114.80
2018-01-05T17:54:12.845Z,97110.05
2018-01-05T17:56:40.291Z,97101.18
2018-01-05T17:59:08.010Z,97097.72
2018-01-05T18:01:35.482Z,97092.76
2018-01-05T18:04:02.967Z,97090.16
2018-01-05T18:06:31.003Z,97094.06
2018-01-05T18:08:58.458Z,97094.09
2018-01-05T18:11:25.920Z,97097.05
2018-01-05T18:13:53.636Z,97104.80
2018-01-05T18:16:21.091Z,97100.88
2018-01-05T18:18:48.549Z,97111.41
2018-01-05T18:21:16.276Z,97104.41
2018-01-05T18:23:43.728Z,97115.11
2018-01-05T18:26:11.182Z,97114.30
2018-01-05T18:28:39.045Z,97125.22
2018-01-05T18:31:06.506Z,97130.06
2018-01-05T18:33:33.969Z,97136.56
2018-01-05T18:36:01.706Z,97140.66
2018-01-05T18:38:29.165Z,97144.84
2018-01-05T18:40:56.894Z,97137.04
2018-01-05T18:43:24.705Z,97142.13
2018-01-05T18:45:52.254Z,97145.34
2018-01-05T18:48:19.709Z,97138.49
2018-01-05T18:50:47.417Z,97143.11
2018-01-05T18:53:14.865Z,97149.48
2018-01-05T18:55:43.114Z,97150.36
2018-01-05T18:58:11.032Z,97151.88
2018-01-05T19:00:38.500Z,97148.51
2018-01-05T19:03:05.951Z,97161.17
2018-01-05T19:05:33.763Z,97159.66
2018-01-05T19:08:01.225Z,97168.54
2018-01-05T19:10:28.681Z,97164.38
2018-01-05T19:12:56.412Z,97162.48
2018-01-05T19:15:24.011Z,97166.09
2018-01-05T19:17:51.496Z,97167.48
2018-01-05T19:20:19.325Z,97164.95
2018-01-05T19:22:46.785Z,97168.41
2018-01-05T19:25:14.263Z,97172.48
2018-01-05T19:27:42.060Z,97173.25
2018-01-05T19:30:09.529Z,97171.73
2018-01-05T19:32:36.989Z,97170.27
2018-01-05T19:35:04.706Z,97167.28
2018-01-05T19:37:32.156Z,97161.72
2018-01-05T19:39:59.610Z,97165.05
2018-01-05T19:42:27.458Z,97170.09
2018-01-05T19:44:54.915Z,97177.25
2018-01-05T19:47:22.366Z,97180.53
2018-01-05T19:49:50.156Z,97184.31
2018-01-05T19:52:17.614Z,97188.31
2018-01-05T19:54:45.077Z,97184.15
2018-01-05T19:57:13.289Z,97179.00
2018-01-05T19:59:40.760Z,97187.86
2018-01-05T20:02:08.232Z,97193.20
2018-01-05T20:04:36.143Z,97197.09
2018-01-05T20:07:03.640Z,97188.83
2018-01-05T20:09:31.074Z,97187.66
2018-01-05T20:11:59.137Z,97196.25
2018-01-05T20:14:26.614Z,97196.11
2018-01-05T20:16:54.077Z,97191.54
2018-01-05T20:19:22.157Z,97189.95
2018-01-05T20:21:49.629Z,97196.14
2018-01-05T20:24:17.106Z,97195.44
2018-01-05T20:26:44.974Z,97203.22
2018-01-05T20:29:12.482Z,97202.97
2018-01-05T20:31:39.947Z,97186.94
2018-01-05T20:34:07.810Z,97190.30
2018-01-05T20:36:35.270Z,97188.83
2018-01-05T20:39:02.732Z,97186.23
2018-01-05T20:41:30.580Z,97192.42
2018-01-05T20:43:58.111Z,97189.49
2018-01-05T20:46:25.583Z,97191.38
2018-01-05T20:48:54.104Z,97188.81
2018-01-05T20:51:22.194Z,97198.17
2018-01-05T20:53:49.664Z,97198.02
2018-01-05T20:56:17.413Z,97203.03
2018-01-05T20:58:45.581Z,97198.56
2018-01-05T21:01:13.325Z,97194.92
2018-01-05T21:03:42.229Z,97197.63
2018-01-05T21:06:09.684Z,97197.06
2018-01-05T21:08:37.154Z,97187.59
2018-01-05T21:11:04.921Z,97196.27
2018-01-05T21:13:32.892Z,97193.73
2018-01-05T21:16:01.605Z,97200.05
2018-01-05T21:18:31.022Z,97197.41
2018-01-05T21:20:58.527Z,97203.76
2018-01-05T21:23:26.225Z,97202.50
2018-01-05T21:25:53.967Z,97208.40
2018-01-05T21:28:22.064Z,97207.80
2018-01-05T21:30:50.122Z,97204.37
2018-01-05T21:33:17.908Z,97213.94
2018-01-05T21:35:45.369Z,97218.25
2018-01-05T21:38:12.830Z,97216.05
2018-01-05T21:40:41.555Z,97228.02
2018-01-05T21:43:09.150Z,97232.42
2018-01-05T21:45:36.750Z,97229.64
2018-01-05T21:48:04.469Z,97234.45
2018-01-05T21:50:31.920Z,97234.78
2018-01-05T21:52:59.476Z,97245.47
2018-01-05T21:55:27.577Z,97239.53
2018-01-05T21:57:55.805Z,97238.84
2018-01-05T22:00:23.730Z,97246.02
2018-01-05T22:02:52.261Z,97244.93
2018-01-05T22:05:19.703Z,97246.28
2018-01-05T22:07:47.152Z,97255.39
2018-01-05T22:10:15.927Z,97246.25
2018-01-05T22:12:43.381Z,97243.93
2018-01-05T22:15:10.914Z,97243.00
2018-01-05T22:17:38.637Z,97243.55
2018-01-05T22:20:06.112Z,97238.53
2018-01-05T22:22:34.082Z,97239.41
2018-01-05T22:25:02.172Z,97235.91
2018-01-05T22:27:29.753Z,97241.39
2018-01-05T22:29:57.898Z,97241.77
2018-01-05T22:32:25.812Z,97252.09
2018-01-05T22:34:53.260Z,97251.16
2018-01-05T22:37:20.721Z,97260.39
2018-01-05T22:39:48.551Z,97258.67
2018-01-05T22:42:16.005Z,97258.71
2018-01-05T22:44:43.471Z,97257.86
2018-01-05T22:47:11.224Z,97253.48
2018-01-05T22:49:38.680Z,97266.45
2018-01-05T22:52:06.164Z,97260.95
2018-01-05T22:54:33.977Z,97268.14
2018-01-05T22:57:01.474Z,97267.26
2018-01-05T22:59:28.949Z,97267.26
2018-01-05T23:01:57.249Z,97266.41
2018-01-05T23:04:24.706Z,97274.80
2018-01-05T23:06:52.161Z,97280.91
2018-01-05T23:09:19.892Z,97271.05
2018-01-05T23:11:47.341Z,97278.72
2018-01-05T23:14:14.796Z,97277.07
2018-01-05T23:16:42.597Z,97277.41
2018-01-05T23:19:10.082Z,97280.61
2018-01-05T23:21:37.535Z,97269.38
2018-01-05T23:24:05.280Z,97284.83
2018-01-05T23:26:33.059Z,97289.63
2018-01-05T23:29:01.108Z,97298.73
2018-01-05T23:31:29.510Z,97303.27
2018-01-05T23:33:56.984Z,97295.10
2018-01-05T23:36:24.612Z,97300.50
2018-01-05T23:38:52.656Z,97291.73
2018-01-05T23:41:21.133Z,97290.94
2018-01-05T23:43:48.690Z,97291.56
2018-01-05T23:46:16.799Z,97286.84
2018-01-05T23:48:44.717Z,97282.55
2018-01-05T23:51:12.653Z,97281.28
2018-01-05T23:53:40.937Z,97289.61
2018-01-05T23:56:08.794Z,97294.97
2018-01-05T23:58:36.490Z,97298.00
